sensor_id;sensor_type;location;lat;lon;timestamp;temperature;humidity
63771;DHT22;60282;43.862;18.430;2023-05-07T00:00:20;13.90;99.90
63771;DHT22;60282;43.862;18.430;2023-05-07T00:02:47;12.20;99.90
63771;DHT22;60282;43.862;18.430;2023-05-07T00:05:13;12.00;99.90
63771;DHT22;60282;43.862;18.430;2023-05-07T00:07:38;12.00;99.90
63771;DHT22;60282;43.862;18.430;2023-05-07T00:10:05;11.90;99.90
63771;DHT22;60282;43.862;18.430;2023-05-07T00:12:32;11.90;99.90
63771;DHT22;60282;43.862;18.430;2023-05-07T00:15:03;11.80;99.90
63771;DHT22;60282;43.862;18.430;2023-05-07T00:17:29;11.80;99.90
63771;DHT22;60282;43.862;18.430;2023-05-07T00:19:55;11.70;99.90
63771;DHT22;60282;43.862;18.430;2023-05-07T00:22:21;11.60;99.90
63771;DHT22;60282;43.862;18.430;2023-05-07T00:24:47;11.60;99.90
63771;DHT22;60282;43.862;18.430;2023-05-07T00:27:12;11.60;99.90
63771;DHT22;60282;43.862;18.430;2023-05-07T00:29:38;11.60;99.90
63771;DHT22;60282;43.862;18.430;2023-05-07T00:32:04;11.50;99.90
63771;DHT22;60282;43.862;18.430;2023-05-07T00:34:30;11.50;99.90
63771;DHT22;60282;43.862;18.430;2023-05-07T00:36:56;11.50;99.90
63771;DHT22;60282;43.862;18.430;2023-05-07T00:39:22;11.50;99.90
63771;DHT22;60282;43.862;18.430;2023-05-07T00:41:48;11.40;99.90
63771;DHT22;60282;43.862;18.430;2023-05-07T00:44:14;11.40;99.90
63771;DHT22;60282;43.862;18.430;2023-05-07T00:46:40;10.60;99.90
63771;DHT22;60282;43.862;18.430;2023-05-07T00:49:06;11.30;99.90
63771;DHT22;60282;43.862;18.430;2023-05-07T00:51:33;11.70;99.90
63771;DHT22;60282;43.862;18.430;2023-05-07T00:54:02;11.90;99.90
63771;DHT22;60282;43.862;18.430;2023-05-07T00:56:28;11.40;99.90
63771;DHT22;60282;43.862;18.430;2023-05-07T00:58:55;11.30;99.90
63771;DHT22;60282;43.862;18.430;2023-05-07T01:01:21;11.30;99.90
63771;DHT22;60282;43.862;18.430;2023-05-07T01:03:48;11.30;99.90
63771;DHT22;60282;43.862;18.430;2023-05-07T01:08:42;11.30;99.90
63771;DHT22;60282;43.862;18.430;2023-05-07T01:11:09;11.30;99.90
63771;DHT22;60282;43.862;18.430;2023-05-07T01:13:37;11.50;99.90
63771;DHT22;60282;43.862;18.430;2023-05-07T01:16:04;11.20;99.90
63771;DHT22;60282;43.862;18.430;2023-05-07T01:18:30;11.40;99.90
63771;DHT22;60282;43.862;18.430;2023-05-07T01:20:58;10.50;99.90
63771;DHT22;60282;43.862;18.430;2023-05-07T01:23:26;7.50;99.90
63771;DHT22;60282;43.862;18.430;2023-05-07T01:25:54;11.10;99.90
63771;DHT22;60282;43.862;18.430;2023-05-07T01:28:20;11.30;99.90
63771;DHT22;60282;43.862;18.430;2023-05-07T01:30:54;11.10;99.90
63771;DHT22;60282;43.862;18.430;2023-05-07T01:33:22;11.00;99.90
63771;DHT22;60282;43.862;18.430;2023-05-07T01:35:51;11.10;99.90
63771;DHT22;60282;43.862;18.430;2023-05-07T01:38:18;11.00;99.90
63771;DHT22;60282;43.862;18.430;2023-05-07T01:40:45;11.10;99.90
63771;DHT22;60282;43.862;18.430;2023-05-07T01:43:12;11.00;99.90
63771;DHT22;60282;43.862;18.430;2023-05-07T01:45:38;11.00;99.90
63771;DHT22;60282;43.862;18.430;2023-05-07T01:48:05;11.00;99.90
63771;DHT22;60282;43.862;18.430;2023-05-07T01:50:32;10.90;99.90
63771;DHT22;60282;43.862;18.430;2023-05-07T01:52:59;10.90;99.90
63771;DHT22;60282;43.862;18.430;2023-05-07T01:55:25;11.00;99.90
63771;DHT22;60282;43.862;18.430;2023-05-07T01:57:52;10.80;99.90
63771;DHT22;60282;43.862;18.430;2023-05-07T02:00:18;10.90;99.90
63771;DHT22;60282;43.862;18.430;2023-05-07T02:02:44;10.80;99.90
63771;DHT22;60282;43.862;18.430;2023-05-07T02:05:10;11.20;99.90
63771;DHT22;60282;43.862;18.430;2023-05-07T02:07:36;10.70;99.90
63771;DHT22;60282;43.862;18.430;2023-05-07T02:10:02;9.30;99.90
63771;DHT22;60282;43.862;18.430;2023-05-07T02:12:28;10.60;99.90
63771;DHT22;60282;43.862;18.430;2023-05-07T02:14:54;10.60;99.90
63771;DHT22;60282;43.862;18.430;2023-05-07T02:17:20;10.60;99.90
63771;DHT22;60282;43.862;18.430;2023-05-07T02:19:46;10.60;99.90
63771;DHT22;60282;43.862;18.430;2023-05-07T02:22:12;10.60;99.90
63771;DHT22;60282;43.862;18.430;2023-05-07T02:27:04;10.50;99.90
63771;DHT22;60282;43.862;18.430;2023-05-07T02:29:30;10.40;99.90
63771;DHT22;60282;43.862;18.430;2023-05-07T02:31:56;10.70;99.90
63771;DHT22;60282;43.862;18.430;2023-05-07T02:34:22;10.50;99.90
63771;DHT22;60282;43.862;18.430;2023-05-07T02:36:47;10.40;99.90
63771;DHT22;60282;43.862;18.430;2023-05-07T02:39:13;10.60;99.90
63771;DHT22;60282;43.862;18.430;2023-05-07T02:44:05;10.30;99.90
63771;DHT22;60282;43.862;18.430;2023-05-07T02:48:57;9.60;99.90
63771;DHT22;60282;43.862;18.430;2023-05-07T02:53:49;10.10;99.90
63771;DHT22;60282;43.862;18.430;2023-05-07T02:56:15;8.90;99.90
63771;DHT22;60282;43.862;18.430;2023-05-07T02:58:41;10.00;99.90
63771;DHT22;60282;43.862;18.430;2023-05-07T03:01:09;10.30;99.90
63771;DHT22;60282;43.862;18.430;2023-05-07T03:03:35;9.70;99.90
63771;DHT22;60282;43.862;18.430;2023-05-07T03:06:02;10.00;99.90
63771;DHT22;60282;43.862;18.430;2023-05-07T03:08:28;10.30;99.90
63771;DHT22;60282;43.862;18.430;2023-05-07T03:10:53;10.00;99.90
63771;DHT22;60282;43.862;18.430;2023-05-07T03:13:19;10.00;99.90
63771;DHT22;60282;43.862;18.430;2023-05-07T03:18:11;11.60;99.90
63771;DHT22;60282;43.862;18.430;2023-05-07T03:20:37;9.90;99.90
63771;DHT22;60282;43.862;18.430;2023-05-07T03:23:03;9.90;99.90
63771;DHT22;60282;43.862;18.430;2023-05-07T03:25:29;9.80;99.90
63771;DHT22;60282;43.862;18.430;2023-05-07T03:30:24;9.80;99.90
63771;DHT22;60282;43.862;18.430;2023-05-07T03:32:50;9.70;99.90
63771;DHT22;60282;43.862;18.430;2023-05-07T03:35:16;9.70;99.90
63771;DHT22;60282;43.862;18.430;2023-05-07T03:37:42;9.70;99.90
63771;DHT22;60282;43.862;18.430;2023-05-07T03:40:08;9.70;99.90
63771;DHT22;60282;43.862;18.430;2023-05-07T03:45:02;9.60;99.90
63771;DHT22;60282;43.862;18.430;2023-05-07T03:49:54;9.70;99.90
63771;DHT22;60282;43.862;18.430;2023-05-07T03:54:52;9.80;99.90
63771;DHT22;60282;43.862;18.430;2023-05-07T03:57:18;11.60;99.90
63771;DHT22;60282;43.862;18.430;2023-05-07T03:59:43;10.10;99.90
63771;DHT22;60282;43.862;18.430;2023-05-07T04:04:35;9.80;99.90
63771;DHT22;60282;43.862;18.430;2023-05-07T04:09:28;9.90;99.90
63771;DHT22;60282;43.862;18.430;2023-05-07T04:11:54;10.10;99.90
63771;DHT22;60282;43.862;18.430;2023-05-07T04:14:19;9.70;99.90
63771;DHT22;60282;43.862;18.430;2023-05-07T04:16:45;9.80;99.90
63771;DHT22;60282;43.862;18.430;2023-05-07T04:21:37;9.80;99.90
63771;DHT22;60282;43.862;18.430;2023-05-07T04:24:03;9.80;99.90
63771;DHT22;60282;43.862;18.430;2023-05-07T04:28:55;9.80;99.90
63771;DHT22;60282;43.862;18.430;2023-05-07T04:31:22;11.60;99.90
63771;DHT22;60282;43.862;18.430;2023-05-07T04:36:13;9.90;99.90
63771;DHT22;60282;43.862;18.430;2023-05-07T04:38:39;9.90;99.90
63771;DHT22;60282;43.862;18.430;2023-05-07T04:41:06;10.00;99.90
63771;DHT22;60282;43.862;18.430;2023-05-07T04:43:32;10.10;99.90
63771;DHT22;60282;43.862;18.430;2023-05-07T04:45:58;10.10;99.90
63771;DHT22;60282;43.862;18.430;2023-05-07T04:48:24;10.20;99.90
63771;DHT22;60282;43.862;18.430;2023-05-07T04:50:50;10.20;99.90
63771;DHT22;60282;43.862;18.430;2023-05-07T04:53:17;10.30;99.90
63771;DHT22;60282;43.862;18.430;2023-05-07T04:55:43;10.40;99.90
63771;DHT22;60282;43.862;18.430;2023-05-07T04:58:09;10.50;99.90
63771;DHT22;60282;43.862;18.430;2023-05-07T05:00:35;10.50;99.90
63771;DHT22;60282;43.862;18.430;2023-05-07T05:03:01;10.60;99.90
63771;DHT22;60282;43.862;18.430;2023-05-07T05:05:26;10.60;99.90
63771;DHT22;60282;43.862;18.430;2023-05-07T05:07:52;10.80;99.90
63771;DHT22;60282;43.862;18.430;2023-05-07T05:10:18;10.80;99.90
63771;DHT22;60282;43.862;18.430;2023-05-07T05:12:44;11.30;99.90
63771;DHT22;60282;43.862;18.430;2023-05-07T05:15:11;11.00;99.90
63771;DHT22;60282;43.862;18.430;2023-05-07T05:17:38;11.30;99.90
63771;DHT22;60282;43.862;18.430;2023-05-07T05:20:05;11.20;99.90
63771;DHT22;60282;43.862;18.430;2023-05-07T05:22:31;11.60;99.90
63771;DHT22;60282;43.862;18.430;2023-05-07T05:24:59;14.40;99.90
63771;DHT22;60282;43.862;18.430;2023-05-07T05:27:24;11.50;99.90
63771;DHT22;60282;43.862;18.430;2023-05-07T05:29:50;11.80;99.90
63771;DHT22;60282;43.862;18.430;2023-05-07T05:34:42;11.80;99.90
63771;DHT22;60282;43.862;18.430;2023-05-07T05:37:08;12.10;99.90
63771;DHT22;60282;43.862;18.430;2023-05-07T05:39:33;12.70;99.90
63771;DHT22;60282;43.862;18.430;2023-05-07T05:41:59;12.20;99.90
63771;DHT22;60282;43.862;18.430;2023-05-07T05:44:25;12.30;99.90
63771;DHT22;60282;43.862;18.430;2023-05-07T05:46:51;12.30;99.90
63771;DHT22;60282;43.862;18.430;2023-05-07T05:49:17;12.60;99.90
63771;DHT22;60282;43.862;18.430;2023-05-07T05:54:09;12.60;99.90
63771;DHT22;60282;43.862;18.430;2023-05-07T05:56:36;12.80;99.90
63771;DHT22;60282;43.862;18.430;2023-05-07T05:59:02;14.50;99.90
63771;DHT22;60282;43.862;18.430;2023-05-07T06:01:28;13.40;99.90
63771;DHT22;60282;43.862;18.430;2023-05-07T06:03:54;13.20;99.90
63771;DHT22;60282;43.862;18.430;2023-05-07T06:06:19;14.90;99.90
63771;DHT22;60282;43.862;18.430;2023-05-07T06:08:45;13.50;99.90
63771;DHT22;60282;43.862;18.430;2023-05-07T06:11:11;13.60;99.90
63771;DHT22;60282;43.862;18.430;2023-05-07T06:13:37;13.70;99.90
63771;DHT22;60282;43.862;18.430;2023-05-07T06:16:03;13.90;99.90
63771;DHT22;60282;43.862;18.430;2023-05-07T06:18:28;14.00;99.90
63771;DHT22;60282;43.862;18.430;2023-05-07T06:20:54;14.20;99.90
63771;DHT22;60282;43.862;18.430;2023-05-07T06:23:20;14.30;99.90
63771;DHT22;60282;43.862;18.430;2023-05-07T06:25:51;14.40;99.90
63771;DHT22;60282;43.862;18.430;2023-05-07T06:28:17;14.60;99.90
63771;DHT22;60282;43.862;18.430;2023-05-07T06:30:43;14.70;99.90
63771;DHT22;60282;43.862;18.430;2023-05-07T06:33:09;14.80;99.90
63771;DHT22;60282;43.862;18.430;2023-05-07T06:35:35;14.90;99.90
63771;DHT22;60282;43.862;18.430;2023-05-07T06:38:01;16.90;99.90
63771;DHT22;60282;43.862;18.430;2023-05-07T06:40:27;15.20;99.90
63771;DHT22;60282;43.862;18.430;2023-05-07T06:42:53;15.30;99.90
63771;DHT22;60282;43.862;18.430;2023-05-07T06:45:19;15.30;99.90
63771;DHT22;60282;43.862;18.430;2023-05-07T06:47:45;15.40;99.90
63771;DHT22;60282;43.862;18.430;2023-05-07T06:50:11;15.50;99.90
63771;DHT22;60282;43.862;18.430;2023-05-07T06:52:37;15.70;99.90
63771;DHT22;60282;43.862;18.430;2023-05-07T06:55:03;15.80;99.90
63771;DHT22;60282;43.862;18.430;2023-05-07T06:57:29;15.90;99.90
63771;DHT22;60282;43.862;18.430;2023-05-07T06:59:54;16.00;99.90
63771;DHT22;60282;43.862;18.430;2023-05-07T07:02:20;16.20;99.90
63771;DHT22;60282;43.862;18.430;2023-05-07T07:04:46;15.90;99.90
63771;DHT22;60282;43.862;18.430;2023-05-07T07:09:38;16.60;99.90
63771;DHT22;60282;43.862;18.430;2023-05-07T07:12:04;16.70;99.90
63771;DHT22;60282;43.862;18.430;2023-05-07T07:14:32;16.90;99.90
63771;DHT22;60282;43.862;18.430;2023-05-07T07:16:58;17.20;99.90
63771;DHT22;60282;43.862;18.430;2023-05-07T07:19:25;17.20;99.90
63771;DHT22;60282;43.862;18.430;2023-05-07T07:21:51;17.30;99.90
63771;DHT22;60282;43.862;18.430;2023-05-07T07:24:17;17.30;99.90
63771;DHT22;60282;43.862;18.430;2023-05-07T07:26:46;17.60;99.90
63771;DHT22;60282;43.862;18.430;2023-05-07T07:29:12;17.60;99.90
63771;DHT22;60282;43.862;18.430;2023-05-07T07:31:38;17.80;99.90
63771;DHT22;60282;43.862;18.430;2023-05-07T07:34:04;17.90;99.90
63771;DHT22;60282;43.862;18.430;2023-05-07T07:36:30;18.00;99.90
63771;DHT22;60282;43.862;18.430;2023-05-07T07:38:56;18.00;99.90
63771;DHT22;60282;43.862;18.430;2023-05-07T07:41:22;18.10;99.90
63771;DHT22;60282;43.862;18.430;2023-05-07T07:43:48;18.10;99.90
63771;DHT22;60282;43.862;18.430;2023-05-07T07:46:14;18.20;99.90
63771;DHT22;60282;43.862;18.430;2023-05-07T07:48:39;18.30;99.90
63771;DHT22;60282;43.862;18.430;2023-05-07T07:51:05;18.60;99.90
63771;DHT22;60282;43.862;18.430;2023-05-07T07:53:31;18.80;99.90
63771;DHT22;60282;43.862;18.430;2023-05-07T07:55:57;18.80;99.90
63771;DHT22;60282;43.862;18.430;2023-05-07T07:58:22;19.10;99.90
63771;DHT22;60282;43.862;18.430;2023-05-07T08:00:50;19.10;99.90
63771;DHT22;60282;43.862;18.430;2023-05-07T08:03:16;19.20;99.90
63771;DHT22;60282;43.862;18.430;2023-05-07T08:05:42;19.40;99.90
63771;DHT22;60282;43.862;18.430;2023-05-07T08:08:09;19.60;99.90
63771;DHT22;60282;43.862;18.430;2023-05-07T08:10:34;20.70;99.90
63771;DHT22;60282;43.862;18.430;2023-05-07T08:13:03;19.90;99.40
63771;DHT22;60282;43.862;18.430;2023-05-07T08:15:29;20.10;99.10
63771;DHT22;60282;43.862;18.430;2023-05-07T08:17:55;20.40;99.50
63771;DHT22;60282;43.862;18.430;2023-05-07T08:20:23;20.60;97.60
63771;DHT22;60282;43.862;18.430;2023-05-07T08:22:49;20.50;97.80
63771;DHT22;60282;43.862;18.430;2023-05-07T08:25:15;20.60;97.60
63771;DHT22;60282;43.862;18.430;2023-05-07T08:27:40;20.70;96.30
63771;DHT22;60282;43.862;18.430;2023-05-07T08:30:07;20.90;95.90
63771;DHT22;60282;43.862;18.430;2023-05-07T08:32:32;21.10;96.30
63771;DHT22;60282;43.862;18.430;2023-05-07T08:34:58;21.00;96.30
63771;DHT22;60282;43.862;18.430;2023-05-07T08:37:24;21.10;96.10
63771;DHT22;60282;43.862;18.430;2023-05-07T08:39:50;21.20;96.50
63771;DHT22;60282;43.862;18.430;2023-05-07T08:42:16;21.30;95.70
63771;DHT22;60282;43.862;18.430;2023-05-07T08:44:45;21.40;95.40
63771;DHT22;60282;43.862;18.430;2023-05-07T08:47:12;21.50;95.20
63771;DHT22;60282;43.862;18.430;2023-05-07T08:49:38;21.70;95.10
63771;DHT22;60282;43.862;18.430;2023-05-07T08:52:04;19.80;94.40
63771;DHT22;60282;43.862;18.430;2023-05-07T08:54:30;22.00;93.90
63771;DHT22;60282;43.862;18.430;2023-05-07T08:56:57;22.10;93.80
63771;DHT22;60282;43.862;18.430;2023-05-07T08:59:22;22.30;93.40
63771;DHT22;60282;43.862;18.430;2023-05-07T09:01:48;22.40;91.90
63771;DHT22;60282;43.862;18.430;2023-05-07T09:04:14;22.20;93.50
63771;DHT22;60282;43.862;18.430;2023-05-07T09:06:40;22.40;92.70
63771;DHT22;60282;43.862;18.430;2023-05-07T09:09:07;22.50;92.30
63771;DHT22;60282;43.862;18.430;2023-05-07T09:11:33;22.30;92.80
63771;DHT22;60282;43.862;18.430;2023-05-07T09:13:59;22.60;92.10
63771;DHT22;60282;43.862;18.430;2023-05-07T09:16:28;22.50;91.50
63771;DHT22;60282;43.862;18.430;2023-05-07T09:18:54;22.50;91.50
63771;DHT22;60282;43.862;18.430;2023-05-07T09:21:21;22.70;91.60
63771;DHT22;60282;43.862;18.430;2023-05-07T09:23:52;22.80;91.10
63771;DHT22;60282;43.862;18.430;2023-05-07T09:26:18;22.90;87.00
63771;DHT22;60282;43.862;18.430;2023-05-07T09:28:44;23.10;87.10
63771;DHT22;60282;43.862;18.430;2023-05-07T09:31:11;23.30;88.70
63771;DHT22;60282;43.862;18.430;2023-05-07T09:33:38;23.50;87.30
63771;DHT22;60282;43.862;18.430;2023-05-07T09:36:05;23.50;82.80
63771;DHT22;60282;43.862;18.430;2023-05-07T09:38:35;23.80;85.00
63771;DHT22;60282;43.862;18.430;2023-05-07T09:41:03;24.10;81.30
63771;DHT22;60282;43.862;18.430;2023-05-07T09:43:32;24.40;83.30
63771;DHT22;60282;43.862;18.430;2023-05-07T09:46:07;24.40;81.40
63771;DHT22;60282;43.862;18.430;2023-05-07T09:48:37;24.50;79.80
63771;DHT22;60282;43.862;18.430;2023-05-07T09:51:10;24.20;79.90
63771;DHT22;60282;43.862;18.430;2023-05-07T09:53:38;24.40;80.30
63771;DHT22;60282;43.862;18.430;2023-05-07T09:56:05;24.40;80.20
63771;DHT22;60282;43.862;18.430;2023-05-07T09:58:32;24.50;79.00
63771;DHT22;60282;43.862;18.430;2023-05-07T10:00:59;24.70;77.10
63771;DHT22;60282;43.862;18.430;2023-05-07T10:03:27;24.90;76.80
63771;DHT22;60282;43.862;18.430;2023-05-07T10:05:54;24.80;75.80
63771;DHT22;60282;43.862;18.430;2023-05-07T10:10:47;24.70;74.70
63771;DHT22;60282;43.862;18.430;2023-05-07T10:13:12;24.80;63.50
63771;DHT22;60282;43.862;18.430;2023-05-07T10:15:38;24.90;64.70
63771;DHT22;60282;43.862;18.430;2023-05-07T10:18:06;25.20;68.70
63771;DHT22;60282;43.862;18.430;2023-05-07T10:20:33;25.30;72.20
63771;DHT22;60282;43.862;18.430;2023-05-07T10:23:04;25.20;70.50
63771;DHT22;60282;43.862;18.430;2023-05-07T10:25:32;25.40;69.80
63771;DHT22;60282;43.862;18.430;2023-05-07T10:28:06;25.40;69.70
63771;DHT22;60282;43.862;18.430;2023-05-07T10:33:34;23.90;65.90
63771;DHT22;60282;43.862;18.430;2023-05-07T10:36:01;25.60;64.10
63771;DHT22;60282;43.862;18.430;2023-05-07T10:38:29;25.60;59.90
63771;DHT22;60282;43.862;18.430;2023-05-07T10:40:58;25.70;56.20
63771;DHT22;60282;43.862;18.430;2023-05-07T10:43:24;25.90;55.00
63771;DHT22;60282;43.862;18.430;2023-05-07T10:51:28;26.10;55.00
63771;DHT22;60282;43.862;18.430;2023-05-07T10:56:43;26.70;53.50
63771;DHT22;60282;43.862;18.430;2023-05-07T10:59:31;26.60;51.90
63771;DHT22;60282;43.862;18.430;2023-05-07T11:02:04;26.70;51.90
63771;DHT22;60282;43.862;18.430;2023-05-07T11:04:32;27.00;52.10
63771;DHT22;60282;43.862;18.430;2023-05-07T11:07:20;27.20;53.50
63771;DHT22;60282;43.862;18.430;2023-05-07T11:15:04;27.10;52.90
63771;DHT22;60282;43.862;18.430;2023-05-07T11:17:30;27.20;52.00
63771;DHT22;60282;43.862;18.430;2023-05-07T11:19:57;27.30;49.10
63771;DHT22;60282;43.862;18.430;2023-05-07T11:25:07;27.50;50.50
63771;DHT22;60282;43.862;18.430;2023-05-07T11:27:33;27.50;49.10
63771;DHT22;60282;43.862;18.430;2023-05-07T11:29:59;27.40;48.80
63771;DHT22;60282;43.862;18.430;2023-05-07T11:32:30;27.70;48.50
63771;DHT22;60282;43.862;18.430;2023-05-07T11:34:57;27.80;49.00
63771;DHT22;60282;43.862;18.430;2023-05-07T11:37:24;28.20;49.70
63771;DHT22;60282;43.862;18.430;2023-05-07T11:40:05;28.40;50.60
63771;DHT22;60282;43.862;18.430;2023-05-07T11:42:37;28.70;49.70
63771;DHT22;60282;43.862;18.430;2023-05-07T11:45:04;29.20;49.00
63771;DHT22;60282;43.862;18.430;2023-05-07T11:47:31;29.20;48.80
63771;DHT22;60282;43.862;18.430;2023-05-07T11:50:06;29.40;48.10
63771;DHT22;60282;43.862;18.430;2023-05-07T11:52:33;29.30;47.80
63771;DHT22;60282;43.862;18.430;2023-05-07T11:55:00;29.50;47.90
63771;DHT22;60282;43.862;18.430;2023-05-07T11:57:27;29.40;47.60
63771;DHT22;60282;43.862;18.430;2023-05-07T11:59:57;29.60;48.10
63771;DHT22;60282;43.862;18.430;2023-05-07T12:02:24;29.60;48.10
63771;DHT22;60282;43.862;18.430;2023-05-07T12:04:54;30.10;47.90
63771;DHT22;60282;43.862;18.430;2023-05-07T12:07:24;30.80;46.90
63771;DHT22;60282;43.862;18.430;2023-05-07T12:09:50;30.80;45.80
63771;DHT22;60282;43.862;18.430;2023-05-07T12:12:16;30.30;44.80
63771;DHT22;60282;43.862;18.430;2023-05-07T12:14:44;30.10;45.50
63771;DHT22;60282;43.862;18.430;2023-05-07T12:17:11;29.90;45.50
63771;DHT22;60282;43.862;18.430;2023-05-07T12:19:39;30.00;45.40
63771;DHT22;60282;43.862;18.430;2023-05-07T12:22:07;30.20;45.30
63771;DHT22;60282;43.862;18.430;2023-05-07T12:24:47;30.40;45.80
63771;DHT22;60282;43.862;18.430;2023-05-07T12:27:17;31.00;45.50
63771;DHT22;60282;43.862;18.430;2023-05-07T12:29:50;30.30;43.50
63771;DHT22;60282;43.862;18.430;2023-05-07T12:32:17;32.40;44.60
63771;DHT22;60282;43.862;18.430;2023-05-07T12:34:44;32.60;44.60
63771;DHT22;60282;43.862;18.430;2023-05-07T12:37:10;33.20;46.00
63771;DHT22;60282;43.862;18.430;2023-05-07T12:39:38;32.50;41.10
63771;DHT22;60282;43.862;18.430;2023-05-07T12:42:04;32.60;41.00
63771;DHT22;60282;43.862;18.430;2023-05-07T12:44:32;32.80;40.10
63771;DHT22;60282;43.862;18.430;2023-05-07T12:46:58;33.00;40.70
63771;DHT22;60282;43.862;18.430;2023-05-07T12:49:25;32.50;40.70
63771;DHT22;60282;43.862;18.430;2023-05-07T12:51:51;32.20;42.20
63771;DHT22;60282;43.862;18.430;2023-05-07T12:54:33;31.70;43.40
63771;DHT22;60282;43.862;18.430;2023-05-07T12:57:06;31.00;44.60
63771;DHT22;60282;43.862;18.430;2023-05-07T12:59:39;30.90;44.90
63771;DHT22;60282;43.862;18.430;2023-05-07T13:02:06;30.90;44.40
63771;DHT22;60282;43.862;18.430;2023-05-07T13:04:32;30.20;44.50
63771;DHT22;60282;43.862;18.430;2023-05-07T13:06:59;30.50;44.80
63771;DHT22;60282;43.862;18.430;2023-05-07T13:09:25;30.80;44.00
63771;DHT22;60282;43.862;18.430;2023-05-07T13:11:51;31.40;43.40
63771;DHT22;60282;43.862;18.430;2023-05-07T13:14:17;31.80;42.80
63771;DHT22;60282;43.862;18.430;2023-05-07T13:16:43;31.80;44.50
63771;DHT22;60282;43.862;18.430;2023-05-07T13:19:09;32.20;46.40
63771;DHT22;60282;43.862;18.430;2023-05-07T13:21:35;32.30;44.70
63771;DHT22;60282;43.862;18.430;2023-05-07T13:24:00;32.30;45.30
63771;DHT22;60282;43.862;18.430;2023-05-07T13:26:26;32.50;45.60
63771;DHT22;60282;43.862;18.430;2023-05-07T13:28:53;33.10;45.40
63771;DHT22;60282;43.862;18.430;2023-05-07T13:31:19;33.30;45.00
63771;DHT22;60282;43.862;18.430;2023-05-07T13:33:46;33.80;44.90
63771;DHT22;60282;43.862;18.430;2023-05-07T13:36:13;34.80;46.30
63771;DHT22;60282;43.862;18.430;2023-05-07T13:38:39;35.10;44.60
63771;DHT22;60282;43.862;18.430;2023-05-07T13:41:05;35.20;43.50
63771;DHT22;60282;43.862;18.430;2023-05-07T13:43:31;35.20;44.00
63771;DHT22;60282;43.862;18.430;2023-05-07T13:45:59;34.90;43.10
63771;DHT22;60282;43.862;18.430;2023-05-07T13:48:25;34.90;43.80
63771;DHT22;60282;43.862;18.430;2023-05-07T13:50:51;35.30;42.50
63771;DHT22;60282;43.862;18.430;2023-05-07T13:53:17;35.10;42.50
63771;DHT22;60282;43.862;18.430;2023-05-07T13:55:44;35.10;42.80
63771;DHT22;60282;43.862;18.430;2023-05-07T13:58:10;35.50;43.60
63771;DHT22;60282;43.862;18.430;2023-05-07T14:00:37;34.80;46.40
63771;DHT22;60282;43.862;18.430;2023-05-07T14:03:04;34.40;47.20
63771;DHT22;60282;43.862;18.430;2023-05-07T14:05:30;34.00;47.60
63771;DHT22;60282;43.862;18.430;2023-05-07T14:07:57;33.70;48.00
63771;DHT22;60282;43.862;18.430;2023-05-07T14:10:23;33.10;47.70
63771;DHT22;60282;43.862;18.430;2023-05-07T14:12:49;33.20;48.20
63771;DHT22;60282;43.862;18.430;2023-05-07T14:15:15;33.40;48.70
63771;DHT22;60282;43.862;18.430;2023-05-07T14:17:42;33.60;48.50
63771;DHT22;60282;43.862;18.430;2023-05-07T14:20:08;32.90;48.90
63771;DHT22;60282;43.862;18.430;2023-05-07T14:22:34;32.80;49.30
63771;DHT22;60282;43.862;18.430;2023-05-07T14:25:00;31.70;49.10
63771;DHT22;60282;43.862;18.430;2023-05-07T14:27:25;31.90;50.20
63771;DHT22;60282;43.862;18.430;2023-05-07T14:29:51;32.00;50.30
63771;DHT22;60282;43.862;18.430;2023-05-07T14:32:18;32.70;50.70
63771;DHT22;60282;43.862;18.430;2023-05-07T14:34:44;33.50;49.40
63771;DHT22;60282;43.862;18.430;2023-05-07T14:37:10;34.20;48.60
63771;DHT22;60282;43.862;18.430;2023-05-07T14:39:36;35.10;48.20
63771;DHT22;60282;43.862;18.430;2023-05-07T14:42:02;35.90;46.70
63771;DHT22;60282;43.862;18.430;2023-05-07T14:44:28;36.60;46.30
63771;DHT22;60282;43.862;18.430;2023-05-07T14:46:54;37.00;46.60
63771;DHT22;60282;43.862;18.430;2023-05-07T14:49:20;37.60;46.50
63771;DHT22;60282;43.862;18.430;2023-05-07T14:51:47;37.70;46.10
63771;DHT22;60282;43.862;18.430;2023-05-07T14:54:13;37.10;44.70
63771;DHT22;60282;43.862;18.430;2023-05-07T14:56:40;36.90;45.80
63771;DHT22;60282;43.862;18.430;2023-05-07T14:59:06;35.80;45.70
63771;DHT22;60282;43.862;18.430;2023-05-07T15:01:34;35.20;48.10
63771;DHT22;60282;43.862;18.430;2023-05-07T15:04:00;34.70;48.80
63771;DHT22;60282;43.862;18.430;2023-05-07T15:06:26;34.00;47.60
63771;DHT22;60282;43.862;18.430;2023-05-07T15:08:52;33.30;46.90
63771;DHT22;60282;43.862;18.430;2023-05-07T15:11:18;33.70;47.40
63771;DHT22;60282;43.862;18.430;2023-05-07T15:13:44;33.90;47.00
63771;DHT22;60282;43.862;18.430;2023-05-07T15:16:12;34.50;46.60
63771;DHT22;60282;43.862;18.430;2023-05-07T15:18:38;34.00;45.20
63771;DHT22;60282;43.862;18.430;2023-05-07T15:21:04;33.80;47.00
63771;DHT22;60282;43.862;18.430;2023-05-07T15:23:32;33.90;46.40
63771;DHT22;60282;43.862;18.430;2023-05-07T15:25:58;34.20;46.10
63771;DHT22;60282;43.862;18.430;2023-05-07T15:28:24;34.80;46.20
63771;DHT22;60282;43.862;18.430;2023-05-07T15:30:50;35.00;44.80
63771;DHT22;60282;43.862;18.430;2023-05-07T15:33:16;35.00;44.70
63771;DHT22;60282;43.862;18.430;2023-05-07T15:35:42;34.70;44.70
63771;DHT22;60282;43.862;18.430;2023-05-07T15:38:07;34.40;44.30
63771;DHT22;60282;43.862;18.430;2023-05-07T15:40:34;33.70;45.20
63771;DHT22;60282;43.862;18.430;2023-05-07T15:43:00;32.90;46.60
63771;DHT22;60282;43.862;18.430;2023-05-07T15:45:26;31.80;48.70
63771;DHT22;60282;43.862;18.430;2023-05-07T15:47:52;30.90;50.40
63771;DHT22;60282;43.862;18.430;2023-05-07T15:50:18;29.70;51.70
63771;DHT22;60282;43.862;18.430;2023-05-07T15:52:43;28.90;53.00
63771;DHT22;60282;43.862;18.430;2023-05-07T15:55:11;28.10;54.00
63771;DHT22;60282;43.862;18.430;2023-05-07T15:57:37;27.30;55.00
63771;DHT22;60282;43.862;18.430;2023-05-07T16:00:06;26.80;56.30
63771;DHT22;60282;43.862;18.430;2023-05-07T16:02:35;26.30;57.50
63771;DHT22;60282;43.862;18.430;2023-05-07T16:05:02;26.00;58.00
63771;DHT22;60282;43.862;18.430;2023-05-07T16:07:28;25.70;58.90
63771;DHT22;60282;43.862;18.430;2023-05-07T16:09:53;25.30;59.70
63771;DHT22;60282;43.862;18.430;2023-05-07T16:12:19;25.20;60.30
63771;DHT22;60282;43.862;18.430;2023-05-07T16:14:45;25.00;60.70
63771;DHT22;60282;43.862;18.430;2023-05-07T16:17:11;24.80;60.90
63771;DHT22;60282;43.862;18.430;2023-05-07T16:19:36;24.60;61.70